Time;durP1;ratioP1;P1;durP2;ratioP2;P2;SDS_P1;SDS_P2;PMS_P1;PMS_P2;Temp;Humidity;BMP_temperature;BMP_pressure;BME280_temperature;BME280_humidity;BME280_pressure;Samples;Min_cycle;Max_cycle;Signal;HPM_P1;HPM_P2
2023/11/14 00:01:29;;;;;;;1.53;1.40;;;13.80;73.60;;;;;;4993098;28;20230;-56
2023/11/14 00:03:56;;;;;;;1.20;1.20;;;13.90;73.50;;;;;;4993586;28;20777;-52
2023/11/14 00:06:22;;;;;;;1.23;1.23;;;13.90;74.60;;;;;;4986658;28;20313;-54
2023/11/14 00:08:49;;;;;;;1.07;1.07;;;13.80;76.10;;;;;;4981025;28;20207;-55
2023/11/14 00:11:16;;;;;;;1.40;1.40;;;13.80;77.40;;;;;;4987110;28;20204;-55
2023/11/14 00:13:42;;;;;;;1.90;1.80;;;13.70;79.00;;;;;;4988855;28;20693;-55
2023/11/14 00:16:09;;;;;;;1.87;1.10;;;13.60;80.50;;;;;;4986541;28;20225;-55
2023/11/14 00:18:35;;;;;;;1.40;1.30;;;13.60;80.60;;;;;;4995114;28;20681;-56
2023/11/14 00:21:02;;;;;;;1.43;1.33;;;13.70;80.40;;;;;;4993693;28;20270;-54
2023/11/14 00:23:29;;;;;;;1.50;1.40;;;13.60;81.90;;;;;;4975780;28;20245;-55
2023/11/14 00:25:55;;;;;;;1.40;1.30;;;13.50;83.20;;;;;;4982552;28;20644;-57
2023/11/14 00:28:22;;;;;;;1.40;1.30;;;13.60;82.90;;;;;;4982769;28;20628;-57
2023/11/14 00:30:48;;;;;;;1.60;1.50;;;13.60;83.50;;;;;;4984910;28;20239;-56
2023/11/14 00:33:15;;;;;;;2.10;1.80;;;13.50;84.90;;;;;;4994095;28;20228;-54
2023/11/14 00:35:43;;;;;;;1.57;1.47;;;13.50;86.00;;;;;;4992586;28;20636;-55
2023/11/14 00:38:09;;;;;;;1.97;1.47;;;13.40;86.70;;;;;;4994245;28;20292;-55
2023/11/14 00:40:38;;;;;;;1.50;1.40;;;13.40;87.20;;;;;;4989352;28;20289;-55
2023/11/14 00:43:05;;;;;;;1.60;1.50;;;13.40;88.10;;;;;;4993186;28;20629;-56
2023/11/14 00:48:15;;;;;;;1.50;1.40;;;13.40;88.90;;;;;;4991610;28;20643;-53
2023/11/14 00:50:42;;;;;;;2.67;1.40;;;13.30;89.70;;;;;;4987652;28;20214;-56
2023/11/14 00:53:08;;;;;;;1.50;1.40;;;13.30;90.00;;;;;;4995142;28;20401;-56
2023/11/14 00:55:35;;;;;;;1.37;1.27;;;13.20;90.30;;;;;;4995077;28;20244;-54
2023/11/14 00:58:02;;;;;;;1.40;1.30;;;13.30;90.10;;;;;;4994535;28;20585;-55
2023/11/14 01:00:28;;;;;;;1.60;1.50;;;13.30;89.60;;;;;;4987403;28;20217;-56
2023/11/14 01:03:00;;;;;;;1.10;1.10;;;13.30;89.60;;;;;;4976945;28;20248;-56
2023/11/14 01:05:26;;;;;;;1.23;1.20;;;13.30;89.10;;;;;;4986865;28;20678;-56
2023/11/14 01:07:53;;;;;;;1.40;1.33;;;13.30;88.70;;;;;;4987892;28;20218;-56
2023/11/14 01:10:21;;;;;;;1.40;1.30;;;13.30;89.30;;;;;;4989383;28;20219;-56
2023/11/14 01:12:47;;;;;;;2.00;1.53;;;13.20;89.20;;;;;;4992475;28;20210;-55
2023/11/14 01:15:14;;;;;;;1.53;1.43;;;13.30;88.90;;;;;;4994838;28;20223;-56
2023/11/14 01:17:40;;;;;;;1.80;1.47;;;13.30;89.00;;;;;;4994895;28;20217;-57
2023/11/14 01:20:08;;;;;;;1.33;1.30;;;13.30;89.10;;;;;;4983653;28;20684;-53
2023/11/14 01:22:34;;;;;;;1.17;1.07;;;13.30;89.20;;;;;;4979369;28;20284;-54
2023/11/14 01:25:01;;;;;;;2.07;1.37;;;13.30;89.70;;;;;;4986926;28;20230;-55
2023/11/14 01:27:27;;;;;;;1.63;1.27;;;13.30;89.10;;;;;;4994801;28;20284;-55
2023/11/14 01:29:54;;;;;;;1.13;1.03;;;13.30;89.20;;;;;;4994198;28;20302;-56
2023/11/14 01:32:21;;;;;;;1.20;1.20;;;13.30;89.80;;;;;;4989236;28;20687;-56
2023/11/14 01:34:47;;;;;;;1.40;1.30;;;13.30;89.70;;;;;;4993746;28;20314;-55
2023/11/14 01:37:14;;;;;;;1.40;1.30;;;13.20;90.40;;;;;;4993201;28;20208;-56
2023/11/14 01:39:41;;;;;;;1.27;1.20;;;13.20;87.90;;;;;;4983156;28;20273;-55
2023/11/14 01:42:07;;;;;;;1.63;1.20;;;13.10;87.60;;;;;;4952487;28;20680;-56
2023/11/14 01:44:34;;;;;;;1.20;1.10;;;12.90;85.60;;;;;;4986303;28;20783;-54
2023/11/14 01:47:00;;;;;;;1.27;1.20;;;12.70;84.00;;;;;;4993101;28;20227;-56
2023/11/14 01:49:26;;;;;;;1.93;1.17;;;12.60;82.50;;;;;;4994604;28;20214;-54
2023/11/14 01:51:53;;;;;;;2.70;1.77;;;12.40;82.80;;;;;;4987325;28;20298;-54
2023/11/14 01:54:20;;;;;;;1.47;1.20;;;12.20;82.00;;;;;;4993307;28;20209;-52
2023/11/14 01:56:47;;;;;;;2.37;1.60;;;12.10;82.60;;;;;;4988733;28;20212;-54
2023/11/14 01:59:13;;;;;;;1.40;1.30;;;12.20;82.90;;;;;;4994467;28;20656;-53
2023/11/14 02:01:40;;;;;;;1.43;1.20;;;12.20;82.60;;;;;;4983397;28;20255;-55
2023/11/14 02:04:06;;;;;;;2.97;1.10;;;12.20;82.60;;;;;;4986953;28;20291;-55
2023/11/14 02:06:33;;;;;;;1.43;1.30;;;12.10;82.50;;;;;;4991656;28;20237;-56
2023/11/14 02:08:59;;;;;;;4.27;1.57;;;12.00;82.70;;;;;;4994902;28;20204;-55
2023/11/14 02:11:26;;;;;;;2.47;1.47;;;12.10;83.50;;;;;;4995301;28;20346;-52
2023/11/14 02:13:52;;;;;;;2.07;1.67;;;12.00;83.80;;;;;;4992840;28;20204;-56
2023/11/14 02:16:19;;;;;;;1.60;1.50;;;12.00;84.60;;;;;;4993691;28;20239;-56
2023/11/14 02:18:45;;;;;;;2.90;2.23;;;12.00;84.10;;;;;;4989873;28;20211;-55
2023/11/14 02:21:12;;;;;;;2.03;1.33;;;12.00;83.60;;;;;;4985074;28;20254;-56
2023/11/14 02:23:38;;;;;;;6.30;1.70;;;11.90;82.00;;;;;;4992873;28;20302;-56
2023/11/14 02:26:05;;;;;;;2.07;1.40;;;11.80;81.30;;;;;;4999208;28;20322;-54
2023/11/14 02:28:31;;;;;;;2.17;1.60;;;11.80;80.20;;;;;;4999511;28;20279;-56
2023/11/14 02:30:57;;;;;;;3.07;1.90;;;11.80;79.00;;;;;;4999598;28;20668;-56
2023/11/14 02:33:24;;;;;;;3.27;1.83;;;11.80;79.10;;;;;;4996995;28;20230;-55
2023/11/14 02:35:50;;;;;;;4.10;1.90;;;11.70;78.80;;;;;;4997118;28;20227;-55
2023/11/14 02:38:18;;;;;;;4.43;1.90;;;11.70;77.70;;;;;;4972092;28;20279;-56
2023/11/14 02:40:45;;;;;;;3.77;1.93;;;11.60;79.10;;;;;;4992318;28;20702;-54
2023/11/14 02:43:11;;;;;;;3.63;1.70;;;11.60;78.60;;;;;;4994417;28;20294;-54
2023/11/14 02:45:37;;;;;;;4.20;2.00;;;11.60;78.40;;;;;;4990722;28;20325;-56
2023/11/14 02:48:04;;;;;;;3.50;1.70;;;11.60;78.50;;;;;;4997683;28;20302;-52
2023/11/14 02:50:30;;;;;;;3.87;2.20;;;11.50;78.50;;;;;;4997581;28;20243;-52
2023/11/14 02:52:58;;;;;;;2.63;2.07;;;11.50;78.90;;;;;;4996322;28;20294;-54
2023/11/14 02:55:25;;;;;;;1.70;1.60;;;11.50;78.50;;;;;;4986989;28;20317;-55
2023/11/14 02:57:51;;;;;;;3.60;1.70;;;11.50;79.00;;;;;;4996121;28;20278;-57
2023/11/14 03:00:18;;;;;;;3.37;1.67;;;11.40;79.10;;;;;;4998226;28;20656;-57
2023/11/14 03:02:44;;;;;;;3.40;1.90;;;11.40;79.20;;;;;;4997598;28;20262;-53
2023/11/14 03:05:11;;;;;;;4.73;1.90;;;11.40;78.90;;;;;;4996612;28;20310;-55
2023/11/14 03:07:37;;;;;;;5.43;1.93;;;11.40;77.40;;;;;;4992733;28;20208;-56
2023/11/14 03:10:04;;;;;;;3.33;2.00;;;11.40;77.40;;;;;;4994443;28;20689;-55
2023/11/14 03:12:30;;;;;;;6.63;2.00;;;11.30;78.80;;;;;;4988458;28;20296;-55
2023/11/14 03:14:58;;;;;;;5.97;2.10;;;11.30;77.90;;;;;;4987395;28;20586;-55
2023/11/14 03:17:25;;;;;;;4.33;1.97;;;11.20;78.40;;;;;;4998321;28;20207;-51
2023/11/14 03:19:51;;;;;;;6.67;2.17;;;11.30;77.80;;;;;;4996079;28;20248;-56
2023/11/14 03:22:17;;;;;;;3.00;2.27;;;11.30;77.20;;;;;;4996702;28;20593;-56
2023/11/14 03:24:44;;;;;;;4.23;2.30;;;11.20;77.50;;;;;;4990782;28;20305;-51
2023/11/14 03:27:10;;;;;;;4.63;2.00;;;11.30;77.30;;;;;;4998651;28;20246;-55
2023/11/14 03:29:37;;;;;;;5.83;2.10;;;11.20;78.60;;;;;;4997202;28;20249;-52
2023/11/14 03:32:03;;;;;;;6.67;2.00;;;11.20;77.90;;;;;;4987090;28;20591;-57
2023/11/14 03:34:30;;;;;;;5.80;2.03;;;11.20;77.70;;;;;;4980942;28;20213;-56
2023/11/14 03:36:56;;;;;;;3.87;2.47;;;11.20;77.90;;;;;;4995335;28;20288;-53
2023/11/14 03:39:23;;;;;;;7.50;2.63;;;11.20;77.80;;;;;;4990731;28;20220;-56
2023/11/14 03:41:50;;;;;;;4.97;2.50;;;11.20;78.40;;;;;;4997939;28;20221;-58
2023/11/14 03:44:16;;;;;;;5.47;2.40;;;11.30;78.60;;;;;;4996984;28;20343;-55
2023/11/14 03:46:43;;;;;;;2.83;2.10;;;11.20;77.80;;;;;;4998219;28;20269;-53
2023/11/14 03:49:09;;;;;;;5.60;2.27;;;11.10;78.70;;;;;;4994697;28;20211;-57
2023/11/14 03:51:35;;;;;;;6.80;3.33;;;11.10;78.20;;;;;;4982587;28;20214;-56
2023/11/14 03:54:02;;;;;;;3.80;2.20;;;11.10;78.80;;;;;;4992794;28;20211;-56
2023/11/14 03:56:28;;;;;;;6.60;2.43;;;11.10;77.90;;;;;;4999036;28;20223;-56
2023/11/14 03:58:55;;;;;;;2.93;2.07;;;11.20;77.30;;;;;;4996203;28;20297;-56
2023/11/14 04:01:21;;;;;;;6.53;2.90;;;11.10;77.40;;;;;;4996407;28;20294;-56
2023/11/14 04:03:48;;;;;;;4.73;2.30;;;11.10;78.30;;;;;;4998916;28;20836;-55
2023/11/14 04:06:14;;;;;;;7.80;2.47;;;11.00;78.80;;;;;;4999153;28;20224;-57
2023/11/14 04:08:41;;;;;;;4.43;2.30;;;11.00;78.90;;;;;;4985777;28;20209;-56
2023/11/14 04:11:07;;;;;;;6.07;2.30;;;11.00;79.70;;;;;;4995132;28;20297;-55
2023/11/14 04:13:34;;;;;;;6.27;2.27;;;11.00;79.10;;;;;;4998839;28;20627;-54
2023/11/14 04:16:01;;;;;;;5.17;2.20;;;10.90;79.70;;;;;;4995585;28;20230;-56
2023/11/14 04:18:27;;;;;;;6.03;2.10;;;11.00;79.00;;;;;;4994413;28;20237;-55
2023/11/14 04:20:55;;;;;;;4.10;2.17;;;11.00;79.10;;;;;;4993150;28;20211;-56
2023/11/14 04:23:21;;;;;;;4.90;1.87;;;11.00;78.80;;;;;;4993736;28;20230;-55
2023/11/14 04:25:48;;;;;;;7.50;2.90;;;11.00;79.20;;;;;;4996389;28;20235;-54
2023/11/14 04:28:14;;;;;;;4.03;2.03;;;11.00;78.80;;;;;;4981661;28;20213;-54
2023/11/14 04:30:41;;;;;;;3.00;1.90;;;10.90;80.00;;;;;;4988376;28;20214;-55
2023/11/14 04:33:07;;;;;;;8.33;2.57;;;11.00;79.80;;;;;;4992692;28;20674;-53
2023/11/14 04:35:34;;;;;;;7.33;2.50;;;11.00;79.50;;;;;;4998899;28;20289;-52
2023/11/14 04:38:00;;;;;;;6.90;3.17;;;10.90;80.30;;;;;;4997444;28;20300;-56
2023/11/14 04:40:27;;;;;;;7.03;3.30;;;10.80;80.30;;;;;;4998288;28;20279;-55
2023/11/14 04:42:53;;;;;;;3.03;2.20;;;11.00;80.40;;;;;;4997724;28;20294;-55
2023/11/14 04:45:21;;;;;;;4.27;2.07;;;10.90;80.90;;;;;;4984386;28;20250;-56
2023/11/14 04:47:47;;;;;;;3.30;2.10;;;10.90;81.30;;;;;;4981935;28;20210;-54
2023/11/14 04:50:14;;;;;;;5.57;2.50;;;10.90;80.70;;;;;;4993749;28;20270;-56
2023/11/14 04:52:40;;;;;;;3.40;2.10;;;11.00;80.50;;;;;;4990004;28;20239;-55
2023/11/14 04:55:06;;;;;;;6.47;2.40;;;11.00;80.80;;;;;;4995811;28;20285;-56
2023/11/14 04:57:33;;;;;;;6.00;2.07;;;11.00;80.90;;;;;;4990157;28;20249;-56
2023/11/14 05:00:00;;;;;;;3.73;1.97;;;10.90;81.40;;;;;;4992686;28;20297;-55
2023/11/14 05:02:27;;;;;;;3.40;2.10;;;10.90;81.50;;;;;;4990538;28;20252;-55
2023/11/14 05:04:54;;;;;;;3.77;2.40;;;10.90;81.90;;;;;;4986063;28;20244;-55
2023/11/14 05:07:21;;;;;;;8.27;2.87;;;10.90;81.40;;;;;;4983869;28;20688;-56
2023/11/14 05:09:47;;;;;;;3.87;2.40;;;10.90;82.00;;;;;;4996640;28;20216;-57
2023/11/14 05:12:14;;;;;;;8.03;2.60;;;10.90;82.10;;;;;;4989600;28;20272;-56
2023/11/14 05:14:41;;;;;;;4.97;2.40;;;10.90;82.90;;;;;;4994146;28;20316;-56
2023/11/14 05:17:07;;;;;;;4.03;2.07;;;10.90;83.10;;;;;;4994024;28;20241;-57
2023/11/14 05:19:34;;;;;;;4.57;2.10;;;10.90;82.60;;;;;;4996777;28;20757;-56
2023/11/14 05:22:00;;;;;;;4.63;2.10;;;10.90;82.50;;;;;;4979004;28;20228;-57
2023/11/14 05:24:27;;;;;;;4.33;2.20;;;10.90;81.40;;;;;;4991021;28;20296;-55
2023/11/14 05:26:53;;;;;;;4.90;2.33;;;10.90;82.40;;;;;;4996219;28;20273;-57
2023/11/14 05:29:20;;;;;;;4.67;2.73;;;10.80;82.20;;;;;;4996544;28;20274;-56
2023/11/14 05:31:46;;;;;;;6.10;2.43;;;10.80;83.10;;;;;;4995739;28;20299;-56
2023/11/14 05:34:14;;;;;;;4.20;2.50;;;10.80;82.50;;;;;;4996579;28;20219;-58
2023/11/14 05:36:41;;;;;;;3.17;2.20;;;10.90;82.20;;;;;;4994648;28;22095;-57
2023/11/14 05:39:07;;;;;;;5.13;2.40;;;10.90;82.00;;;;;;4993669;28;20278;-54
2023/11/14 05:41:35;;;;;;;3.20;2.33;;;10.90;82.50;;;;;;4983113;28;20206;-53
2023/11/14 05:44:01;;;;;;;5.30;2.43;;;10.90;82.10;;;;;;4993266;28;20253;-56
2023/11/14 05:46:28;;;;;;;3.60;2.17;;;10.90;82.40;;;;;;4991464;28;20287;-55
2023/11/14 05:48:54;;;;;;;2.87;2.10;;;10.90;83.10;;;;;;4989076;28;20668;-56
2023/11/14 05:51:21;;;;;;;5.30;2.10;;;10.90;82.40;;;;;;4993957;28;20305;-56
2023/11/14 05:53:48;;;;;;;3.70;2.47;;;10.80;83.40;;;;;;4979951;28;20217;-56
2023/11/14 05:56:14;;;;;;;5.80;2.10;;;10.80;83.70;;;;;;4990305;28;20229;-52
2023/11/14 05:58:41;;;;;;;3.97;2.23;;;10.80;84.70;;;;;;4992200;28;20294;-57
2023/11/14 06:01:08;;;;;;;5.27;2.40;;;10.80;84.30;;;;;;4994285;28;20297;-53
2023/11/14 06:03:35;;;;;;;3.17;2.33;;;10.90;84.40;;;;;;4993562;28;20593;-52
2023/11/14 06:06:02;;;;;;;5.33;2.43;;;10.90;84.40;;;;;;4992516;28;20293;-56
2023/11/14 06:08:29;;;;;;;3.67;2.10;;;10.80;85.00;;;;;;4992024;28;20221;-56
2023/11/14 06:10:55;;;;;;;3.60;2.13;;;10.80;85.40;;;;;;4979685;28;20299;-55
2023/11/14 06:13:22;;;;;;;3.30;2.40;;;10.80;85.60;;;;;;4989181;28;20220;-51
2023/11/14 06:15:48;;;;;;;4.03;2.60;;;10.70;85.50;;;;;;4993551;28;20321;-56
2023/11/14 06:18:15;;;;;;;3.43;2.73;;;10.80;86.20;;;;;;4990425;28;20225;-54
2023/11/14 06:20:42;;;;;;;3.97;2.43;;;10.70;86.00;;;;;;4989659;28;20234;-56
2023/11/14 06:23:09;;;;;;;3.60;2.17;;;10.80;85.90;;;;;;4987741;28;20233;-56
2023/11/14 06:25:35;;;;;;;4.03;2.20;;;10.80;85.60;;;;;;4986298;28;20276;-56
2023/11/14 06:28:02;;;;;;;3.10;2.00;;;10.80;84.40;;;;;;4987060;28;20635;-54
2023/11/14 06:30:28;;;;;;;2.10;1.90;;;10.90;83.40;;;;;;4973852;28;20210;-55
2023/11/14 06:32:55;;;;;;;3.73;1.80;;;10.90;82.50;;;;;;4989460;28;20686;-54
2023/11/14 06:35:22;;;;;;;4.87;2.07;;;10.90;80.80;;;;;;4994531;28;20319;-56
2023/11/14 06:37:48;;;;;;;3.17;2.00;;;10.90;81.40;;;;;;4994476;28;20218;-55
2023/11/14 06:40:15;;;;;;;3.20;1.97;;;10.90;80.40;;;;;;4992772;28;20221;-55
2023/11/14 06:42:41;;;;;;;3.20;2.40;;;10.80;79.30;;;;;;4987366;28;20226;-56
2023/11/14 06:45:08;;;;;;;2.50;2.10;;;10.90;79.60;;;;;;4993736;28;20225;-56
2023/11/14 06:47:34;;;;;;;5.77;2.30;;;10.80;78.60;;;;;;4980932;28;20210;-56
2023/11/14 06:50:01;;;;;;;2.67;1.93;;;10.80;78.90;;;;;;4983688;28;20211;-57
2023/11/14 06:52:27;;;;;;;1.70;1.60;;;10.80;77.20;;;;;;4994732;28;20292;-55
2023/11/14 06:54:54;;;;;;;1.80;1.50;;;10.80;76.90;;;;;;4976193;28;20243;-57
2023/11/14 06:57:20;;;;;;;3.53;1.60;;;10.80;77.20;;;;;;4995895;28;20296;-55
2023/11/14 06:59:47;;;;;;;1.60;1.50;;;10.70;76.70;;;;;;4982614;28;20681;-55
2023/11/14 07:02:14;;;;;;;3.63;1.90;;;10.70;76.10;;;;;;4986221;28;20217;-55
2023/11/14 07:04:40;;;;;;;2.43;1.70;;;10.60;76.70;;;;;;4986071;28;20298;-55
2023/11/14 07:07:07;;;;;;;4.73;1.90;;;10.60;75.40;;;;;;4980126;28;20308;-57
2023/11/14 07:09:34;;;;;;;2.70;1.70;;;10.60;74.60;;;;;;4986967;28;20295;-55
2023/11/14 07:12:01;;;;;;;3.53;1.63;;;10.70;74.20;;;;;;4972023;28;20209;-55
2023/11/14 07:14:29;;;;;;;2.97;1.63;;;10.70;74.10;;;;;;4978559;28;20198;-55
2023/11/14 07:16:56;;;;;;;2.40;1.60;;;10.70;73.60;;;;;;4994365;28;20228;-56
2023/11/14 07:19:22;;;;;;;2.00;1.80;;;10.70;73.90;;;;;;4960312;28;20225;-56
2023/11/14 07:21:49;;;;;;;1.80;1.67;;;10.70;73.40;;;;;;4979058;28;20671;-56
2023/11/14 07:24:15;;;;;;;2.63;1.73;;;10.60;73.10;;;;;;4973871;28;20237;-55
2023/11/14 07:26:42;;;;;;;3.47;1.57;;;10.70;73.60;;;;;;4995158;28;20292;-56
2023/11/14 07:29:10;;;;;;;1.80;1.70;;;10.70;73.10;;;;;;4996726;28;20210;-56
2023/11/14 07:31:38;;;;;;;2.90;1.87;;;10.70;73.00;;;;;;4993031;28;20909;-55
2023/11/14 07:34:05;;;;;;;3.53;1.90;;;10.60;73.80;;;;;;4995053;28;20214;-57
2023/11/14 07:36:31;;;;;;;2.53;1.70;;;10.60;74.40;;;;;;4986116;28;20226;-56
2023/11/14 07:38:58;;;;;;;1.63;1.50;;;10.60;74.10;;;;;;4994397;28;20747;-55
2023/11/14 07:41:25;;;;;;;3.60;2.07;;;10.60;74.00;;;;;;4989221;28;20293;-56
2023/11/14 07:43:52;;;;;;;1.60;1.43;;;10.60;74.20;;;;;;4983754;28;20237;-56
2023/11/14 07:46:18;;;;;;;1.90;1.70;;;10.60;74.10;;;;;;4996979;28;20320;-53
2023/11/14 07:48:44;;;;;;;2.97;1.63;;;10.60;73.90;;;;;;4998261;28;20297;-56
2023/11/14 07:51:11;;;;;;;2.20;1.80;;;10.60;73.20;;;;;;4997206;28;20238;-56
2023/11/14 07:53:38;;;;;;;2.03;1.80;;;10.70;72.60;;;;;;4982912;28;20658;-56
2023/11/14 07:56:04;;;;;;;2.50;1.80;;;10.70;71.80;;;;;;4977908;28;20381;-56
2023/11/14 07:58:31;;;;;;;2.50;1.40;;;10.70;70.60;;;;;;4988418;28;20240;-55
2023/11/14 08:00:57;;;;;;;1.70;1.60;;;10.70;70.50;;;;;;4968627;28;20592;-58
2023/11/14 08:03:24;;;;;;;1.60;1.50;;;10.70;70.50;;;;;;4979783;28;20259;-58
2023/11/14 08:05:50;;;;;;;3.53;1.37;;;10.80;70.70;;;;;;4945454;28;20223;-56
2023/11/14 08:08:17;;;;;;;1.80;1.53;;;10.70;69.90;;;;;;4969787;28;20211;-55
2023/11/14 08:10:44;;;;;;;2.03;1.50;;;10.80;70.30;;;;;;4984346;28;20220;-54
2023/11/14 08:13:10;;;;;;;3.20;1.67;;;10.80;69.50;;;;;;4984435;28;20298;-56
2023/11/14 08:15:37;;;;;;;1.73;1.37;;;10.80;70.20;;;;;;4995186;28;20266;-56
2023/11/14 08:18:04;;;;;;;2.03;1.63;;;10.80;69.70;;;;;;4995604;28;20210;-54
2023/11/14 08:20:30;;;;;;;2.23;1.40;;;10.90;69.80;;;;;;4982406;28;20761;-57
2023/11/14 08:22:57;;;;;;;1.50;1.40;;;10.90;69.80;;;;;;4981945;28;20646;-55
2023/11/14 08:25:23;;;;;;;2.57;1.57;;;10.80;67.80;;;;;;4993264;28;20313;-56
2023/11/14 08:27:50;;;;;;;1.63;1.53;;;10.90;67.90;;;;;;4989078;28;20285;-53
2023/11/14 08:30:16;;;;;;;2.50;1.33;;;11.00;68.00;;;;;;4979878;28;20260;-53
2023/11/14 08:32:44;;;;;;;1.57;1.47;;;11.00;68.00;;;;;;4988513;28;20218;-54
2023/11/14 08:35:11;;;;;;;2.10;1.50;;;11.00;67.10;;;;;;4993356;28;20226;-52
2023/11/14 08:37:38;;;;;;;1.40;1.30;;;11.00;67.50;;;;;;4993719;28;20215;-53
2023/11/14 08:40:04;;;;;;;1.53;1.40;;;11.20;67.90;;;;;;4993918;28;20218;-54
2023/11/14 08:42:31;;;;;;;1.97;1.33;;;11.30;67.20;;;;;;4995081;28;20203;-55
2023/11/14 08:44:57;;;;;;;1.70;1.20;;;11.30;67.30;;;;;;4994585;28;20234;-53
2023/11/14 08:47:23;;;;;;;1.50;1.20;;;11.30;67.20;;;;;;4994312;28;20793;-56
2023/11/14 08:49:50;;;;;;;2.43;1.30;;;11.20;67.20;;;;;;4969598;28;20541;-53
2023/11/14 08:52:16;;;;;;;1.60;1.40;;;11.30;67.70;;;;;;4940225;28;20236;-54
2023/11/14 08:54:43;;;;;;;1.63;1.53;;;11.30;68.20;;;;;;4993516;28;20233;-51
2023/11/14 08:57:09;;;;;;;2.80;1.43;;;11.40;68.20;;;;;;4991325;28;20216;-53
2023/11/14 08:59:36;;;;;;;1.60;1.50;;;11.30;68.30;;;;;;4994977;28;20208;-55
2023/11/14 09:02:03;;;;;;;2.20;1.30;;;11.40;68.40;;;;;;4993016;28;20215;-56
2023/11/14 09:04:30;;;;;;;3.47;1.70;;;11.40;68.40;;;;;;4994714;28;20230;-51
2023/11/14 09:06:56;;;;;;;1.80;1.60;;;11.30;68.80;;;;;;4977247;28;20234;-54
2023/11/14 09:09:23;;;;;;;1.53;1.43;;;11.30;69.00;;;;;;4987855;28;20574;-54
2023/11/14 09:11:50;;;;;;;1.37;1.30;;;11.40;69.20;;;;;;4977037;28;20207;-57
2023/11/14 09:14:16;;;;;;;1.20;1.20;;;11.40;68.80;;;;;;4967194;28;20665;-54
2023/11/14 09:16:43;;;;;;;1.10;1.10;;;11.40;68.40;;;;;;4988304;28;20263;-55
2023/11/14 09:19:09;;;;;;;1.10;1.10;;;11.40;69.30;;;;;;4989448;28;20690;-51
2023/11/14 09:21:36;;;;;;;1.10;1.10;;;11.50;67.80;;;;;;4990801;28;20207;-52
2023/11/14 09:24:03;;;;;;;1.50;1.40;;;11.50;66.80;;;;;;4996835;28;20293;-54
2023/11/14 09:26:30;;;;;;;2.30;1.20;;;11.60;66.10;;;;;;4985071;28;20227;-58
2023/11/14 09:28:56;;;;;;;2.93;1.60;;;11.90;64.30;;;;;;4992231;28;20203;-51
2023/11/14 09:31:22;;;;;;;2.00;1.20;;;11.90;61.60;;;;;;4979978;28;20302;-57
2023/11/14 09:33:49;;;;;;;1.53;1.10;;;11.70;60.90;;;;;;4995768;28;20201;-53
2023/11/14 09:36:15;;;;;;;1.27;1.20;;;11.70;60.30;;;;;;4982998;28;20246;-54
2023/11/14 09:38:42;;;;;;;1.53;1.33;;;11.60;59.30;;;;;;4989843;28;20208;-54
2023/11/14 09:41:08;;;;;;;1.53;1.30;;;11.50;58.40;;;;;;4990027;28;20291;-53
2023/11/14 09:43:35;;;;;;;2.33;1.20;;;11.50;57.40;;;;;;4998726;28;20262;-55
2023/11/14 09:46:01;;;;;;;1.40;1.30;;;11.40;57.30;;;;;;4994280;28;20237;-53
2023/11/14 09:48:28;;;;;;;1.60;1.50;;;11.40;55.70;;;;;;5000475;28;20282;-53
2023/11/14 09:50:54;;;;;;;1.87;1.30;;;11.30;55.70;;;;;;4994675;28;20286;-53
2023/11/14 09:53:23;;;;;;;2.10;1.53;;;11.30;54.70;;;;;;4991647;28;20208;-52
2023/11/14 09:55:49;;;;;;;1.60;1.50;;;11.30;54.90;;;;;;5001318;28;20231;-55
2023/11/14 09:58:16;;;;;;;1.50;1.40;;;11.30;54.60;;;;;;5002678;28;20211;-53
2023/11/14 10:00:43;;;;;;;2.47;1.33;;;11.30;54.70;;;;;;4995979;28;20274;-55
2023/11/14 10:03:09;;;;;;;1.40;1.30;;;11.30;54.10;;;;;;4993785;28;20223;-54
2023/11/14 10:05:36;;;;;;;3.47;1.73;;;11.30;54.00;;;;;;5002458;28;20655;-54
2023/11/14 10:08:03;;;;;;;1.77;1.60;;;11.30;54.60;;;;;;4989700;28;20269;-55
2023/11/14 10:10:31;;;;;;;1.60;1.50;;;11.40;53.10;;;;;;4997233;28;20235;-56
2023/11/14 10:12:58;;;;;;;2.70;1.43;;;11.40;53.20;;;;;;4994291;28;20242;-53
2023/11/14 10:15:24;;;;;;;1.83;1.53;;;11.40;52.90;;;;;;4993980;28;20293;-55
2023/11/14 10:17:50;;;;;;;1.40;1.30;;;11.40;52.70;;;;;;5002003;28;20280;-55
2023/11/14 10:20:18;;;;;;;1.50;1.20;;;11.50;52.50;;;;;;5000182;28;20222;-55
2023/11/14 10:22:43;;;;;;;1.40;1.30;;;11.40;51.50;;;;;;4995899;28;20220;-54
2023/11/14 10:25:09;;;;;;;1.60;1.50;;;11.40;51.80;;;;;;4991924;28;20235;-52
2023/11/14 10:27:36;;;;;;;1.70;1.50;;;11.40;51.60;;;;;;4992749;28;20627;-50
2023/11/14 10:30:03;;;;;;;1.90;1.50;;;11.40;51.50;;;;;;4990452;28;20218;-51
2023/11/14 10:32:30;;;;;;;1.57;1.30;;;11.40;50.90;;;;;;4997288;28;20270;-51
2023/11/14 10:34:56;;;;;;;1.40;1.30;;;11.50;51.00;;;;;;4996865;28;20231;-50
2023/11/14 10:37:24;;;;;;;1.87;1.47;;;11.70;51.40;;;;;;4997913;28;20251;-51
2023/11/14 10:39:50;;;;;;;3.43;1.70;;;11.90;50.70;;;;;;4997546;28;20224;-52
2023/11/14 10:42:16;;;;;;;4.10;1.53;;;12.00;51.10;;;;;;4992883;28;20208;-53
2023/11/14 10:44:43;;;;;;;1.70;1.60;;;12.00;51.80;;;;;;4984401;28;20604;-53
2023/11/14 10:47:10;;;;;;;1.43;1.33;;;11.80;50.60;;;;;;4990173;28;20609;-51
2023/11/14 10:49:36;;;;;;;1.30;1.20;;;11.70;51.50;;;;;;4964575;28;20201;-50
2023/11/14 10:52:03;;;;;;;2.97;1.43;;;11.70;51.30;;;;;;4987610;28;20243;-54
2023/11/14 10:54:29;;;;;;;1.40;1.30;;;11.70;50.60;;;;;;4995110;28;20727;-51
2023/11/14 10:56:56;;;;;;;1.47;1.37;;;11.70;50.50;;;;;;4996163;28;20216;-53
2023/11/14 10:59:22;;;;;;;1.30;1.20;;;11.70;51.50;;;;;;4992321;28;20227;-52
2023/11/14 11:01:49;;;;;;;2.30;1.20;;;11.80;51.00;;;;;;4989910;28;20324;-51
2023/11/14 11:04:15;;;;;;;3.63;1.50;;;11.70;51.40;;;;;;4981639;28;20238;-55
2023/11/14 11:06:42;;;;;;;1.30;1.20;;;11.70;51.70;;;;;;5001386;28;20617;-55
2023/11/14 11:09:10;;;;;;;1.80;1.27;;;11.70;51.70;;;;;;4990354;28;20266;-52
2023/11/14 11:11:38;;;;;;;2.20;1.60;;;11.70;51.60;;;;;;4995149;28;20620;-55
2023/11/14 11:14:04;;;;;;;2.37;1.70;;;11.70;51.80;;;;;;4989973;28;20227;-53
2023/11/14 11:16:30;;;;;;;2.97;1.80;;;11.60;51.80;;;;;;4998558;28;20322;-55
2023/11/14 11:18:56;;;;;;;3.53;1.80;;;11.60;51.90;;;;;;4992518;28;20235;-53
2023/11/14 11:21:23;;;;;;;2.10;1.60;;;11.60;51.70;;;;;;5005776;28;20294;-52
2023/11/14 11:23:49;;;;;;;2.43;1.40;;;11.60;52.40;;;;;;4992291;28;20658;-55
2023/11/14 11:26:16;;;;;;;1.93;1.40;;;11.60;52.00;;;;;;4995779;28;20672;-51
2023/11/14 11:28:42;;;;;;;1.93;1.73;;;11.60;52.10;;;;;;4980569;28;20208;-54
2023/11/14 11:31:10;;;;;;;1.63;1.50;;;11.70;51.90;;;;;;4986037;28;20215;-52
2023/11/14 11:33:36;;;;;;;2.50;2.03;;;11.60;52.10;;;;;;4984688;28;20228;-54
2023/11/14 11:36:03;;;;;;;3.43;2.00;;;11.70;51.80;;;;;;4987067;28;20235;-54
2023/11/14 11:38:30;;;;;;;2.23;1.60;;;11.80;52.30;;;;;;4987570;28;20208;-52
2023/11/14 11:40:56;;;;;;;2.80;1.50;;;11.80;52.20;;;;;;4990568;28;20298;-55
2023/11/14 11:43:22;;;;;;;2.10;1.40;;;11.80;51.80;;;;;;4989895;28;20212;-53
2023/11/14 11:45:50;;;;;;;1.50;1.40;;;11.80;52.10;;;;;;4985416;28;20262;-52
2023/11/14 11:48:17;;;;;;;2.27;2.07;;;11.80;52.50;;;;;;4978328;28;20208;-54
2023/11/14 11:50:44;;;;;;;2.27;1.30;;;11.80;52.50;;;;;;4985219;28;20299;-55
2023/11/14 11:53:11;;;;;;;1.10;1.10;;;11.80;52.10;;;;;;4989045;28;20211;-55
2023/11/14 11:55:38;;;;;;;1.60;1.50;;;11.90;51.80;;;;;;4996189;28;20220;-55
2023/11/14 11:58:05;;;;;;;2.27;1.30;;;12.00;51.80;;;;;;4983099;28;20478;-55
2023/11/14 12:00:32;;;;;;;1.27;1.17;;;12.10;51.50;;;;;;4980666;28;20562;-54
2023/11/14 12:02:58;;;;;;;1.30;1.30;;;12.10;51.20;;;;;;4996566;28;20223;-50
2023/11/14 12:05:24;;;;;;;1.17;1.13;;;12.30;50.70;;;;;;4990369;28;20640;-53
2023/11/14 12:07:51;;;;;;;1.87;1.20;;;12.40;50.60;;;;;;4981694;28;20245;-52
2023/11/14 12:10:21;;;;;;;1.23;1.10;;;12.30;50.40;;;;;;4992468;28;20778;-51
2023/11/14 12:12:47;;;;;;;1.30;1.20;;;12.30;50.60;;;;;;4992900;28;20214;-52
2023/11/14 12:15:15;;;;;;;1.10;1.00;;;12.30;51.00;;;;;;4991070;28;20228;-52
2023/11/14 12:17:42;;;;;;;1.30;1.20;;;12.20;49.70;;;;;;4987940;28;20714;-53
2023/11/14 12:20:09;;;;;;;1.50;1.23;;;12.20;50.60;;;;;;4991610;28;20292;-53
2023/11/14 12:22:36;;;;;;;1.63;1.53;;;12.10;50.90;;;;;;4992863;28;20297;-51
2023/11/14 12:25:02;;;;;;;1.43;1.33;;;12.10;50.70;;;;;;4987743;28;20237;-52
2023/11/14 12:27:29;;;;;;;1.50;1.40;;;12.10;49.90;;;;;;4985620;28;20236;-57
2023/11/14 12:29:55;;;;;;;3.37;1.30;;;12.10;50.80;;;;;;4991424;28;20315;-55
2023/11/14 12:32:22;;;;;;;1.60;1.30;;;12.10;50.40;;;;;;4993274;28;20248;-56
2023/11/14 12:34:49;;;;;;;1.40;1.30;;;12.10;50.20;;;;;;4993604;28;20256;-56
2023/11/14 12:37:16;;;;;;;2.83;1.83;;;12.10;49.70;;;;;;4992328;28;20211;-55
2023/11/14 12:39:43;;;;;;;1.40;1.30;;;12.10;50.20;;;;;;4990633;28;20702;-55
2023/11/14 12:42:11;;;;;;;1.47;1.37;;;12.10;50.20;;;;;;4983130;28;20255;-52
2023/11/14 12:44:37;;;;;;;2.47;1.37;;;12.00;50.80;;;;;;4992067;28;20236;-55
2023/11/14 12:47:08;;;;;;;1.83;1.30;;;12.00;50.80;;;;;;4991215;28;20244;-52